createdAt,value
2019-02-02T00:01:56.092Z,19.50
2019-02-02T00:05:03.443Z,21.05
2019-02-02T00:08:11.034Z,21.17
2019-02-02T00:11:17.919Z,20.80
2019-02-02T00:14:24.867Z,25.88
2019-02-02T00:17:33.891Z,22.75
2019-02-02T00:20:40.814Z,22.93
2019-02-02T00:23:47.694Z,24.05
2019-02-02T00:26:54.788Z,22.02
2019-02-02T00:30:01.806Z,23.65
2019-02-02T00:33:11.618Z,18.80
2019-02-02T00:36:19.718Z,22.85
2019-02-02T00:39:26.751Z,18.77
2019-02-02T00:42:35.285Z,22.00
2019-02-02T00:45:42.410Z,25.55
2019-02-02T00:48:49.286Z,28.30
2019-02-02T00:51:57.342Z,24.27
2019-02-02T00:55:05.989Z,23.77
2019-02-02T00:58:12.911Z,25.25
2019-02-02T01:01:19.817Z,22.25
2019-02-02T01:04:27.720Z,25.72
2019-02-02T01:07:34.779Z,21.75
2019-02-02T01:10:43.831Z,24.05
2019-02-02T01:13:51.506Z,22.22
2019-02-02T01:16:58.491Z,20.35
2019-02-02T01:20:10.975Z,19.90
2019-02-02T01:23:20.403Z,21.95
2019-02-02T01:26:27.885Z,23.05
2019-02-02T01:29:34.924Z,22.60
2019-02-02T01:32:41.805Z,23.15
2019-02-02T01:35:50.321Z,22.87
2019-02-02T01:38:57.222Z,18.90
2019-02-02T01:42:04.489Z,23.67
2019-02-02T01:45:16.071Z,21.20
2019-02-02T01:48:24.584Z,22.30
2019-02-02T01:51:33.100Z,21.90
2019-02-02T01:54:42.060Z,20.60
2019-02-02T01:57:50.532Z,22.87
2019-02-02T02:00:57.563Z,27.95
2019-02-02T02:04:04.948Z,25.02
2019-02-02T02:07:12.916Z,25.20
2019-02-02T02:10:20.288Z,21.62
2019-02-02T02:13:27.414Z,26.30
2019-02-02T02:16:34.389Z,23.10
2019-02-02T02:19:42.101Z,21.75
2019-02-02T02:22:50.082Z,23.18
2019-02-02T02:25:57.008Z,25.40
2019-02-02T02:29:04.210Z,23.80
2019-02-02T02:32:11.666Z,25.15
2019-02-02T02:35:19.403Z,21.65
2019-02-02T02:38:26.440Z,19.95
2019-02-02T02:41:33.508Z,25.27
2019-02-02T02:44:40.442Z,25.65
2019-02-02T02:47:49.795Z,24.37
2019-02-02T02:50:56.838Z,20.92
2019-02-02T02:54:03.798Z,24.43
2019-02-02T02:57:13.126Z,25.35
2019-02-02T03:00:25.793Z,23.92
2019-02-02T03:03:32.766Z,25.55
2019-02-02T03:06:43.731Z,23.52
2019-02-02T03:09:53.585Z,21.65
2019-02-02T03:13:00.723Z,18.07
2019-02-02T03:16:07.662Z,22.32
2019-02-02T03:19:14.681Z,25.77
2019-02-02T03:22:21.780Z,23.25
2019-02-02T03:25:28.869Z,23.85
2019-02-02T03:28:36.041Z,25.30
2019-02-02T03:31:42.980Z,19.62
2019-02-02T03:34:49.973Z,21.52
2019-02-02T03:37:56.923Z,29.10
2019-02-02T03:41:03.939Z,17.37
2019-02-02T03:44:10.831Z,31.20
2019-02-02T03:47:18.617Z,27.20
2019-02-02T03:50:25.497Z,24.15
2019-02-02T03:53:32.585Z,21.87
2019-02-02T03:56:39.802Z,20.70
2019-02-02T03:59:47.897Z,20.52
2019-02-02T04:02:54.850Z,24.02
2019-02-02T04:06:01.771Z,25.88
2019-02-02T04:09:09.698Z,25.90
2019-02-02T04:12:16.660Z,23.10
2019-02-02T04:15:24.410Z,23.55
2019-02-02T04:18:31.411Z,25.17
2019-02-02T04:21:38.312Z,22.58
2019-02-02T04:24:45.236Z,20.17
2019-02-02T04:27:54.759Z,24.35
2019-02-02T04:31:01.680Z,22.25
2019-02-02T04:34:08.717Z,21.95
2019-02-02T04:37:15.900Z,24.18
2019-02-02T04:40:22.777Z,22.67
2019-02-02T04:43:30.069Z,22.82
2019-02-02T04:46:39.703Z,23.98
2019-02-02T04:49:46.637Z,23.75
2019-02-02T04:52:53.514Z,23.55
2019-02-02T04:56:01.965Z,20.95
2019-02-02T04:59:08.884Z,20.92
2019-02-02T05:02:17.488Z,25.60
2019-02-02T05:05:24.613Z,23.87
2019-02-02T05:08:31.985Z,21.75
2019-02-02T05:11:38.939Z,25.55
2019-02-02T05:14:46.155Z,25.00
2019-02-02T05:17:53.061Z,24.15
2019-02-02T05:21:00.083Z,20.30
2019-02-02T05:24:06.990Z,25.52
2019-02-02T05:27:14.184Z,22.05
2019-02-02T05:30:28.078Z,21.35
2019-02-02T05:33:35.340Z,24.18
2019-02-02T05:36:42.244Z,22.37
2019-02-02T05:39:50.129Z,23.98
2019-02-02T05:42:57.013Z,24.52
2019-02-02T05:46:03.947Z,21.82
2019-02-02T05:49:10.943Z,24.65
2019-02-02T05:52:17.960Z,27.13
2019-02-02T05:55:24.875Z,24.40
2019-02-02T05:58:32.226Z,21.00
2019-02-02T06:01:39.207Z,23.60
2019-02-02T06:04:47.506Z,22.82
2019-02-02T06:07:54.402Z,21.00
2019-02-02T06:11:02.648Z,22.07
2019-02-02T06:14:09.723Z,22.15
2019-02-02T06:17:18.136Z,24.18
2019-02-02T06:20:25.136Z,24.82
2019-02-02T06:23:35.406Z,26.35
2019-02-02T06:26:42.403Z,23.87
2019-02-02T06:29:49.346Z,21.48
2019-02-02T06:32:56.235Z,24.10
2019-02-02T06:36:03.611Z,23.95
2019-02-02T06:39:10.784Z,21.50
2019-02-02T06:42:17.744Z,22.32
2019-02-02T06:45:34.357Z,22.35
2019-02-02T06:48:41.485Z,23.47
2019-02-02T06:51:48.469Z,23.00
2019-02-02T06:54:55.409Z,24.02
2019-02-02T06:58:02.312Z,23.62
2019-02-02T07:01:09.221Z,23.92
2019-02-02T07:04:16.470Z,22.90
2019-02-02T07:07:24.660Z,30.65
2019-02-02T07:10:31.653Z,23.10
2019-02-02T07:13:38.691Z,26.02
2019-02-02T07:16:45.624Z,23.60
2019-02-02T07:19:52.571Z,26.12
2019-02-02T07:22:59.555Z,25.75
2019-02-02T07:26:06.484Z,25.23
2019-02-02T07:29:13.615Z,27.15
2019-02-02T07:32:20.536Z,26.23
2019-02-02T07:35:27.522Z,27.98
2019-02-02T07:38:34.534Z,20.75
2019-02-02T07:41:41.715Z,22.60
2019-02-02T07:44:48.717Z,24.63
2019-02-02T07:47:56.089Z,20.52
2019-02-02T07:51:04.670Z,23.52
2019-02-02T07:54:13.074Z,26.48
2019-02-02T07:57:23.093Z,27.45
2019-02-02T08:00:40.816Z,26.35
2019-02-02T08:03:41.697Z,30.68
2019-02-02T08:06:48.598Z,26.93
2019-02-02T08:09:56.027Z,31.77
2019-02-02T08:13:03.094Z,25.92
2019-02-02T08:16:12.179Z,27.48
2019-02-02T08:19:19.402Z,28.12
2019-02-02T08:22:26.338Z,25.23
2019-02-02T08:25:35.827Z,24.90
2019-02-02T08:28:44.223Z,32.75
2019-02-02T08:31:52.874Z,28.70
2019-02-02T08:35:01.626Z,24.67
2019-02-02T08:38:10.365Z,30.55
2019-02-02T08:41:20.140Z,27.62
2019-02-02T08:44:29.578Z,29.48
2019-02-02T08:47:36.851Z,23.38
2019-02-02T08:50:43.734Z,28.17
2019-02-02T08:53:50.670Z,29.52
2019-02-02T08:56:57.722Z,29.37
2019-02-02T09:00:05.674Z,28.07
2019-02-02T09:03:12.599Z,26.85
2019-02-02T09:06:20.368Z,28.67
2019-02-02T09:09:27.273Z,31.30
2019-02-02T09:12:40.157Z,28.95
2019-02-02T09:15:50.311Z,24.30
2019-02-02T09:18:58.683Z,27.52
2019-02-02T09:22:08.796Z,27.45
2019-02-02T09:25:17.326Z,30.68
2019-02-02T09:28:24.207Z,26.97
2019-02-02T09:31:35.336Z,25.02
2019-02-02T09:34:59.371Z,28.47
2019-02-02T09:38:11.950Z,24.05
2019-02-02T09:41:19.301Z,25.97
2019-02-02T09:44:26.213Z,27.13
2019-02-02T09:47:33.195Z,32.70
2019-02-02T09:50:40.244Z,32.33
2019-02-02T09:53:47.146Z,24.12
2019-02-02T09:56:54.187Z,27.52
2019-02-02T10:00:01.572Z,28.85
2019-02-02T10:03:15.848Z,25.25
2019-02-02T10:06:24.422Z,27.07
2019-02-02T10:09:34.487Z,24.50
2019-02-02T10:12:41.743Z,27.60
2019-02-02T10:15:48.682Z,27.90
2019-02-02T10:19:02.363Z,30.60
2019-02-02T10:22:13.728Z,26.30
2019-02-02T10:25:23.870Z,29.30
2019-02-02T10:28:31.122Z,33.00
2019-02-02T10:31:42.107Z,30.60
2019-02-02T10:34:49.605Z,35.05
2019-02-02T10:37:56.872Z,30.90
2019-02-02T10:41:05.196Z,35.03
2019-02-02T10:44:12.193Z,34.15
2019-02-02T10:47:19.308Z,31.15
2019-02-02T10:50:26.331Z,39.40
2019-02-02T10:53:33.272Z,35.60
2019-02-02T10:56:42.470Z,38.45
2019-02-02T10:59:51.384Z,37.23
2019-02-02T11:02:58.564Z,25.88
2019-02-02T11:06:05.938Z,28.62
2019-02-02T11:09:13.119Z,28.42
2019-02-02T11:12:20.107Z,23.87
2019-02-02T11:15:27.891Z,28.83
2019-02-02T11:18:35.023Z,31.68
2019-02-02T11:21:41.978Z,25.35
2019-02-02T11:24:49.525Z,29.60
2019-02-02T11:27:56.794Z,24.23
2019-02-02T11:31:03.854Z,28.17
2019-02-02T11:34:10.893Z,28.75
2019-02-02T11:37:17.917Z,27.20
2019-02-02T11:40:28.369Z,30.77
2019-02-02T11:43:37.662Z,28.35
2019-02-02T11:46:44.845Z,26.50
2019-02-02T11:49:52.873Z,30.20
2019-02-02T11:52:59.975Z,26.65
2019-02-02T11:56:07.132Z,30.97
2019-02-02T11:59:15.289Z,29.27
2019-02-02T12:02:23.752Z,25.65
2019-02-02T12:05:30.953Z,27.02
2019-02-02T12:08:39.540Z,27.85
2019-02-02T12:11:46.498Z,28.27
2019-02-02T12:14:53.530Z,27.13
2019-02-02T12:18:02.591Z,27.35
2019-02-02T12:21:09.584Z,33.45
2019-02-02T12:24:17.672Z,36.42
2019-02-02T12:27:24.650Z,32.98
2019-02-02T12:30:36.485Z,27.27
2019-02-02T12:33:46.120Z,27.42
2019-02-02T12:36:53.144Z,26.35
2019-02-02T12:40:00.229Z,33.35
2019-02-02T12:43:07.283Z,29.30
2019-02-02T12:46:14.253Z,28.90
2019-02-02T12:49:21.945Z,32.05
2019-02-02T12:52:29.060Z,28.07
2019-02-02T12:55:36.048Z,34.67
2019-02-02T12:58:43.402Z,27.95
2019-02-02T13:01:50.339Z,31.20
2019-02-02T13:04:57.531Z,32.90
2019-02-02T13:08:05.308Z,28.10
2019-02-02T13:11:13.016Z,31.95
2019-02-02T13:14:20.379Z,29.07
2019-02-02T13:17:28.940Z,33.78
2019-02-02T13:20:36.455Z,34.75
2019-02-02T13:23:43.562Z,31.60
2019-02-02T13:26:50.608Z,30.45
2019-02-02T13:29:57.648Z,35.17
2019-02-02T13:33:05.114Z,32.45
2019-02-02T13:36:12.147Z,28.02
2019-02-02T13:39:19.445Z,27.37
2019-02-02T13:42:26.755Z,30.85
2019-02-02T13:45:33.748Z,27.17
2019-02-02T13:48:40.947Z,25.20
2019-02-02T13:51:47.978Z,27.85
2019-02-02T13:54:55.006Z,29.65
2019-02-02T13:58:02.036Z,27.70
2019-02-02T14:01:09.217Z,29.37
2019-02-02T14:04:16.322Z,26.97
2019-02-02T14:07:23.540Z,25.20
2019-02-02T14:10:32.828Z,34.18
2019-02-02T14:13:39.932Z,24.98
2019-02-02T14:16:47.931Z,28.62
2019-02-02T14:19:55.032Z,25.20
2019-02-02T14:23:02.402Z,28.32
2019-02-02T14:26:09.507Z,26.25
2019-02-02T14:29:16.605Z,30.08
2019-02-02T14:32:26.060Z,26.73
2019-02-02T14:35:32.991Z,23.70
2019-02-02T14:38:40.171Z,28.73
2019-02-02T14:41:49.084Z,26.27
2019-02-02T14:44:56.173Z,31.37
2019-02-02T14:48:03.196Z,37.10
2019-02-02T14:51:11.562Z,29.95
2019-02-02T14:54:18.690Z,27.75
2019-02-02T14:57:27.063Z,32.05
2019-02-02T15:00:34.193Z,31.48
2019-02-02T15:03:41.372Z,28.92
2019-02-02T15:06:48.478Z,31.23
2019-02-02T15:09:56.520Z,33.98
2019-02-02T15:13:03.672Z,31.27
2019-02-02T15:16:11.827Z,32.90
2019-02-02T15:19:18.788Z,29.10
2019-02-02T15:22:33.059Z,31.85
2019-02-02T15:25:41.006Z,36.48
2019-02-02T15:28:47.955Z,27.10
2019-02-02T15:31:54.930Z,26.15
2019-02-02T15:35:05.910Z,30.15
2019-02-02T15:38:14.097Z,24.35
2019-02-02T15:41:24.922Z,29.20
2019-02-02T15:44:32.527Z,28.70
2019-02-02T15:47:39.586Z,28.00
2019-02-02T15:50:46.530Z,31.90
2019-02-02T15:53:53.566Z,31.27
2019-02-02T15:57:00.546Z,26.33
2019-02-02T16:00:15.470Z,31.95
2019-02-02T16:03:24.470Z,30.82
2019-02-02T16:06:31.777Z,19.40
2019-02-02T16:09:38.679Z,28.77
2019-02-02T16:12:47.394Z,27.52
2019-02-02T16:15:54.450Z,26.48
2019-02-02T16:19:01.505Z,28.60
2019-02-02T16:22:08.464Z,31.10
2019-02-02T16:25:15.863Z,26.85
2019-02-02T16:28:24.133Z,26.87
2019-02-02T16:31:33.684Z,28.27
2019-02-02T16:34:40.641Z,28.15
2019-02-02T16:37:47.697Z,27.00
2019-02-02T16:40:54.704Z,29.10
2019-02-02T16:44:01.705Z,30.35
2019-02-02T16:47:08.663Z,24.23
2019-02-02T16:50:19.364Z,28.75
2019-02-02T16:53:34.713Z,25.60
2019-02-02T16:56:41.722Z,25.25
2019-02-02T16:59:48.679Z,25.40
2019-02-02T17:02:55.933Z,25.68
2019-02-02T17:06:03.069Z,32.98
2019-02-02T17:09:13.736Z,27.32
2019-02-02T17:12:19.501Z,23.67
2019-02-02T17:15:26.595Z,28.20
2019-02-02T17:18:36.595Z,27.55
2019-02-02T17:21:43.659Z,31.60
2019-02-02T17:24:50.912Z,31.68
2019-02-02T17:27:58.103Z,27.30
2019-02-02T17:31:07.226Z,25.52
2019-02-02T17:34:14.428Z,25.35
2019-02-02T17:37:21.421Z,26.55
2019-02-02T17:40:29.440Z,23.45
2019-02-02T17:43:36.523Z,23.62
2019-02-02T17:46:43.590Z,25.43
2019-02-02T17:49:50.698Z,24.30
2019-02-02T17:52:57.963Z,26.85
2019-02-02T17:56:05.066Z,22.50
2019-02-02T17:59:14.002Z,26.85
2019-02-02T18:02:21.088Z,28.30
2019-02-02T18:05:28.276Z,29.57
2019-02-02T18:08:35.285Z,24.80
2019-02-02T18:11:46.303Z,21.23
2019-02-02T18:14:55.723Z,27.40
2019-02-02T18:18:03.629Z,25.12
2019-02-02T18:21:11.802Z,26.97
2019-02-02T18:24:18.847Z,29.98
2019-02-02T18:27:27.027Z,31.60
2019-02-02T18:30:34.147Z,34.83
2019-02-02T18:33:41.802Z,42.60
2019-02-02T18:36:51.731Z,37.33
2019-02-02T18:39:58.967Z,37.45
2019-02-02T18:43:08.156Z,34.50
2019-02-02T18:46:15.587Z,32.75
2019-02-02T18:49:22.636Z,34.98
2019-02-02T18:52:29.832Z,35.48
2019-02-02T18:55:47.127Z,39.48
2019-02-02T18:58:54.070Z,31.40
2019-02-02T19:02:01.131Z,38.05
2019-02-02T19:05:08.933Z,41.65
2019-02-02T19:08:35.155Z,38.75
2019-02-02T19:11:45.149Z,35.83
2019-02-02T19:14:52.299Z,33.65
2019-02-02T19:17:59.269Z,36.53
2019-02-02T19:21:06.414Z,33.95
2019-02-02T19:24:13.423Z,29.35
2019-02-02T19:27:20.564Z,28.35
2019-02-02T19:30:30.458Z,29.50
2019-02-02T19:33:38.527Z,27.15
2019-02-02T19:36:46.907Z,30.02
2019-02-02T19:39:53.910Z,31.27
2019-02-02T19:43:01.005Z,34.15
2019-02-02T19:46:08.000Z,28.45
2019-02-02T19:49:14.943Z,27.00
2019-02-02T19:52:22.913Z,34.33
2019-02-02T19:55:29.984Z,29.55
2019-02-02T19:58:37.197Z,28.12
2019-02-02T20:01:44.189Z,34.83
2019-02-02T20:04:52.336Z,29.25
2019-02-02T20:08:00.568Z,31.65
2019-02-02T20:11:08.963Z,33.33
2019-02-02T20:14:17.367Z,30.43
2019-02-02T20:17:25.844Z,32.33
2019-02-02T20:20:34.382Z,29.07
2019-02-02T20:23:42.529Z,33.65
2019-02-02T20:26:52.909Z,28.90
2019-02-02T20:30:00.813Z,30.30
2019-02-02T20:33:08.783Z,31.48
2019-02-02T20:36:16.712Z,30.82
2019-02-02T20:39:25.089Z,33.23
2019-02-02T20:42:35.801Z,27.82
2019-02-02T20:45:43.996Z,31.65
2019-02-02T20:48:53.809Z,26.97
2019-02-02T20:52:01.704Z,28.17
2019-02-02T20:55:12.476Z,29.50
2019-02-02T20:58:19.407Z,25.62
2019-02-02T21:01:26.459Z,33.30
2019-02-02T21:04:33.491Z,30.72
2019-02-02T21:07:40.612Z,28.75
2019-02-02T21:10:47.507Z,34.80
2019-02-02T21:13:58.451Z,24.65
2019-02-02T21:17:05.410Z,33.88
2019-02-02T21:20:21.800Z,23.77
2019-02-02T21:23:29.114Z,29.00
2019-02-02T21:26:36.126Z,28.50
2019-02-02T21:29:45.125Z,26.20
2019-02-02T21:32:52.167Z,25.92
2019-02-02T21:36:03.975Z,23.47
2019-02-02T21:39:10.027Z,27.22
2019-02-02T21:42:19.971Z,28.65
2019-02-02T21:45:26.942Z,31.12
2019-02-02T21:48:37.368Z,29.18
2019-02-02T21:51:44.417Z,29.23
2019-02-02T21:54:51.502Z,30.08
2019-02-02T21:57:58.626Z,34.27
2019-02-02T22:01:07.141Z,33.05
2019-02-02T22:04:14.208Z,35.40
2019-02-02T22:07:21.113Z,37.50
2019-02-02T22:10:28.244Z,33.85
2019-02-02T22:13:35.685Z,37.38
2019-02-02T22:16:42.713Z,36.23
2019-02-02T22:19:51.431Z,40.05
2019-02-02T22:22:58.894Z,33.10
2019-02-02T22:26:06.150Z,35.40
2019-02-02T22:29:13.209Z,33.92
2019-02-02T22:32:21.118Z,36.75
2019-02-02T22:35:28.221Z,39.38
2019-02-02T22:38:35.686Z,33.38
2019-02-02T22:41:42.698Z,37.63
2019-02-02T22:44:50.890Z,35.43
2019-02-02T22:48:00.989Z,30.45
2019-02-02T22:51:08.411Z,34.18
2019-02-02T22:54:16.154Z,35.63
2019-02-02T22:57:23.213Z,36.95
2019-02-02T23:01:05.993Z,37.67
2019-02-02T23:04:42.430Z,36.13
2019-02-02T23:08:51.434Z,27.10
2019-02-02T23:12:39.106Z,40.12
2019-02-02T23:16:32.317Z,38.83
2019-02-02T23:19:39.359Z,33.65
2019-02-02T23:22:46.379Z,31.82
2019-02-02T23:25:54.472Z,36.65
2019-02-02T23:29:01.482Z,20.25
2019-02-02T23:32:09.571Z,25.60
2019-02-02T23:35:16.583Z,25.72
2019-02-02T23:38:23.543Z,25.45
2019-02-02T23:41:30.646Z,27.10
2019-02-02T23:44:37.576Z,36.77
2019-02-02T23:47:44.823Z,24.75
2019-02-02T23:50:51.917Z,27.87
2019-02-02T23:53:59.061Z,27.90
2019-02-02T23:57:06.360Z,22.35
